sensor_id;sensor_type;location;lat;lon;timestamp;P1;durP1;ratioP1;P2;durP2;ratioP2
17844;SDS011;9047;53.486;10.218;2023-03-20T00:01:28;60.63;;;26.38;;
17844;SDS011;9047;53.486;10.218;2023-03-20T00:03:57;62.95;;;27.60;;
17844;SDS011;9047;53.486;10.218;2023-03-20T00:06:25;64.18;;;29.05;;
17844;SDS011;9047;53.486;10.218;2023-03-20T00:08:54;63.40;;;28.30;;
17844;SDS011;9047;53.486;10.218;2023-03-20T00:11:26;68.35;;;30.05;;
17844;SDS011;9047;53.486;10.218;2023-03-20T00:13:57;67.78;;;29.15;;
17844;SDS011;9047;53.486;10.218;2023-03-20T00:16:28;67.10;;;29.17;;
17844;SDS011;9047;53.486;10.218;2023-03-20T00:19:04;70.47;;;29.38;;
17844;SDS011;9047;53.486;10.218;2023-03-20T00:21:32;75.13;;;30.70;;
17844;SDS011;9047;53.486;10.218;2023-03-20T00:24:01;69.32;;;30.45;;
17844;SDS011;9047;53.486;10.218;2023-03-20T00:26:30;68.55;;;30.40;;
17844;SDS011;9047;53.486;10.218;2023-03-20T00:28:59;69.25;;;28.83;;
17844;SDS011;9047;53.486;10.218;2023-03-20T00:31:31;67.60;;;28.58;;
17844;SDS011;9047;53.486;10.218;2023-03-20T00:34:01;75.03;;;30.88;;
17844;SDS011;9047;53.486;10.218;2023-03-20T00:36:29;69.60;;;29.20;;
17844;SDS011;9047;53.486;10.218;2023-03-20T00:39:01;78.00;;;31.48;;
17844;SDS011;9047;53.486;10.218;2023-03-20T00:41:34;73.32;;;30.08;;
17844;SDS011;9047;53.486;10.218;2023-03-20T00:44:12;72.30;;;28.73;;
17844;SDS011;9047;53.486;10.218;2023-03-20T00:46:46;73.05;;;30.30;;
17844;SDS011;9047;53.486;10.218;2023-03-20T00:49:17;74.43;;;29.90;;
17844;SDS011;9047;53.486;10.218;2023-03-20T00:51:46;67.50;;;29.05;;
17844;SDS011;9047;53.486;10.218;2023-03-20T00:54:18;69.50;;;29.45;;
17844;SDS011;9047;53.486;10.218;2023-03-20T00:56:48;73.60;;;29.25;;
17844;SDS011;9047;53.486;10.218;2023-03-20T00:59:20;65.20;;;27.63;;
17844;SDS011;9047;53.486;10.218;2023-03-20T01:01:50;68.40;;;28.98;;
17844;SDS011;9047;53.486;10.218;2023-03-20T01:04:18;69.13;;;27.23;;
17844;SDS011;9047;53.486;10.218;2023-03-20T01:06:46;69.70;;;27.73;;
17844;SDS011;9047;53.486;10.218;2023-03-20T01:09:16;60.75;;;26.88;;
17844;SDS011;9047;53.486;10.218;2023-03-20T01:11:43;61.72;;;25.73;;
17844;SDS011;9047;53.486;10.218;2023-03-20T01:14:16;64.40;;;26.13;;
17844;SDS011;9047;53.486;10.218;2023-03-20T01:16:44;62.95;;;26.25;;
17844;SDS011;9047;53.486;10.218;2023-03-20T01:19:12;59.97;;;25.10;;
17844;SDS011;9047;53.486;10.218;2023-03-20T01:21:40;54.72;;;23.95;;
17844;SDS011;9047;53.486;10.218;2023-03-20T01:24:07;52.17;;;22.77;;
17844;SDS011;9047;53.486;10.218;2023-03-20T01:26:37;54.67;;;23.80;;
17844;SDS011;9047;53.486;10.218;2023-03-20T01:29:12;51.78;;;21.42;;
17844;SDS011;9047;53.486;10.218;2023-03-20T01:31:44;50.78;;;22.38;;
17844;SDS011;9047;53.486;10.218;2023-03-20T01:34:11;50.95;;;22.65;;
17844;SDS011;9047;53.486;10.218;2023-03-20T01:36:40;51.10;;;22.15;;
17844;SDS011;9047;53.486;10.218;2023-03-20T01:39:14;50.80;;;21.30;;
17844;SDS011;9047;53.486;10.218;2023-03-20T01:41:43;51.55;;;21.13;;
17844;SDS011;9047;53.486;10.218;2023-03-20T01:44:17;49.35;;;22.33;;
17844;SDS011;9047;53.486;10.218;2023-03-20T01:46:46;46.88;;;21.63;;
17844;SDS011;9047;53.486;10.218;2023-03-20T01:52:19;42.97;;;19.88;;
17844;SDS011;9047;53.486;10.218;2023-03-20T01:54:47;47.75;;;20.40;;
17844;SDS011;9047;53.486;10.218;2023-03-20T01:57:16;41.10;;;18.98;;
17844;SDS011;9047;53.486;10.218;2023-03-20T01:59:52;42.20;;;19.73;;
17844;SDS011;9047;53.486;10.218;2023-03-20T02:02:24;43.95;;;19.23;;
17844;SDS011;9047;53.486;10.218;2023-03-20T02:04:57;43.65;;;19.15;;
17844;SDS011;9047;53.486;10.218;2023-03-20T02:07:27;39.58;;;18.65;;
17844;SDS011;9047;53.486;10.218;2023-03-20T02:09:55;42.60;;;19.63;;
17844;SDS011;9047;53.486;10.218;2023-03-20T02:12:22;42.83;;;19.88;;
17844;SDS011;9047;53.486;10.218;2023-03-20T02:14:52;42.03;;;18.77;;
17844;SDS011;9047;53.486;10.218;2023-03-20T02:17:20;44.55;;;19.88;;
17844;SDS011;9047;53.486;10.218;2023-03-20T02:19:49;43.35;;;20.08;;
17844;SDS011;9047;53.486;10.218;2023-03-20T02:22:27;44.05;;;20.13;;
17844;SDS011;9047;53.486;10.218;2023-03-20T02:28:22;50.97;;;21.20;;
17844;SDS011;9047;53.486;10.218;2023-03-20T02:31:21;46.03;;;20.23;;
17844;SDS011;9047;53.486;10.218;2023-03-20T02:34:25;44.25;;;19.58;;
17844;SDS011;9047;53.486;10.218;2023-03-20T02:40:14;37.63;;;17.58;;
17844;SDS011;9047;53.486;10.218;2023-03-20T02:42:48;34.30;;;16.45;;
17844;SDS011;9047;53.486;10.218;2023-03-20T02:45:25;34.22;;;15.45;;
17844;SDS011;9047;53.486;10.218;2023-03-20T02:47:59;30.88;;;13.95;;
17844;SDS011;9047;53.486;10.218;2023-03-20T02:50:34;32.50;;;13.27;;
17844;SDS011;9047;53.486;10.218;2023-03-20T02:53:12;28.08;;;13.45;;
17844;SDS011;9047;53.486;10.218;2023-03-20T02:55:51;31.02;;;13.93;;
17844;SDS011;9047;53.486;10.218;2023-03-20T02:58:25;29.23;;;13.50;;
17844;SDS011;9047;53.486;10.218;2023-03-20T03:00:57;30.00;;;14.07;;
17844;SDS011;9047;53.486;10.218;2023-03-20T03:03:31;30.33;;;14.43;;
17844;SDS011;9047;53.486;10.218;2023-03-20T03:06:04;30.23;;;13.98;;
17844;SDS011;9047;53.486;10.218;2023-03-20T03:08:38;29.45;;;14.13;;
17844;SDS011;9047;53.486;10.218;2023-03-20T03:11:16;29.35;;;13.85;;
17844;SDS011;9047;53.486;10.218;2023-03-20T03:13:45;31.65;;;13.90;;
17844;SDS011;9047;53.486;10.218;2023-03-20T03:16:16;30.15;;;14.43;;
17844;SDS011;9047;53.486;10.218;2023-03-20T03:18:49;29.23;;;14.77;;
17844;SDS011;9047;53.486;10.218;2023-03-20T03:21:24;29.10;;;14.48;;
17844;SDS011;9047;53.486;10.218;2023-03-20T03:23:58;32.40;;;14.88;;
17844;SDS011;9047;53.486;10.218;2023-03-20T03:26:27;31.80;;;15.13;;
17844;SDS011;9047;53.486;10.218;2023-03-20T03:29:02;29.88;;;14.75;;
17844;SDS011;9047;53.486;10.218;2023-03-20T03:31:37;45.03;;;19.95;;
17844;SDS011;9047;53.486;10.218;2023-03-20T03:34:16;45.40;;;19.88;;
17844;SDS011;9047;53.486;10.218;2023-03-20T03:36:48;49.67;;;21.83;;
17844;SDS011;9047;53.486;10.218;2023-03-20T03:39:25;52.35;;;22.27;;
17844;SDS011;9047;53.486;10.218;2023-03-20T03:42:02;51.47;;;21.40;;
17844;SDS011;9047;53.486;10.218;2023-03-20T03:44:35;44.95;;;19.85;;
17844;SDS011;9047;53.486;10.218;2023-03-20T03:47:08;44.83;;;20.23;;
17844;SDS011;9047;53.486;10.218;2023-03-20T03:49:43;43.95;;;20.20;;
17844;SDS011;9047;53.486;10.218;2023-03-20T03:52:17;45.28;;;20.27;;
17844;SDS011;9047;53.486;10.218;2023-03-20T03:54:50;42.25;;;18.98;;
17844;SDS011;9047;53.486;10.218;2023-03-20T03:57:21;39.28;;;17.65;;
17844;SDS011;9047;53.486;10.218;2023-03-20T03:59:53;40.05;;;17.95;;
17844;SDS011;9047;53.486;10.218;2023-03-20T04:02:23;34.97;;;16.15;;
17844;SDS011;9047;53.486;10.218;2023-03-20T04:04:54;35.97;;;16.38;;
17844;SDS011;9047;53.486;10.218;2023-03-20T04:07:24;34.63;;;15.57;;
17844;SDS011;9047;53.486;10.218;2023-03-20T04:09:55;34.00;;;15.63;;
17844;SDS011;9047;53.486;10.218;2023-03-20T04:12:29;31.77;;;14.25;;
17844;SDS011;9047;53.486;10.218;2023-03-20T04:15:05;31.55;;;14.68;;
17844;SDS011;9047;53.486;10.218;2023-03-20T04:17:33;36.40;;;14.85;;
17844;SDS011;9047;53.486;10.218;2023-03-20T04:20:00;34.10;;;15.68;;
17844;SDS011;9047;53.486;10.218;2023-03-20T04:22:28;32.47;;;16.17;;
17844;SDS011;9047;53.486;10.218;2023-03-20T04:24:57;32.25;;;15.50;;
17844;SDS011;9047;53.486;10.218;2023-03-20T04:27:24;34.70;;;15.18;;
17844;SDS011;9047;53.486;10.218;2023-03-20T04:29:53;35.25;;;15.25;;
17844;SDS011;9047;53.486;10.218;2023-03-20T04:32:20;33.45;;;14.50;;
17844;SDS011;9047;53.486;10.218;2023-03-20T04:34:48;34.67;;;14.93;;
17844;SDS011;9047;53.486;10.218;2023-03-20T04:37:16;27.55;;;13.23;;
17844;SDS011;9047;53.486;10.218;2023-03-20T04:39:46;28.95;;;13.65;;
17844;SDS011;9047;53.486;10.218;2023-03-20T04:42:15;26.00;;;13.32;;
17844;SDS011;9047;53.486;10.218;2023-03-20T04:44:42;26.38;;;12.82;;
17844;SDS011;9047;53.486;10.218;2023-03-20T04:47:11;29.65;;;13.80;;
17844;SDS011;9047;53.486;10.218;2023-03-20T04:49:41;28.67;;;13.52;;
17844;SDS011;9047;53.486;10.218;2023-03-20T04:52:08;27.90;;;13.13;;
17844;SDS011;9047;53.486;10.218;2023-03-20T04:54:36;26.42;;;12.88;;
17844;SDS011;9047;53.486;10.218;2023-03-20T04:57:03;25.95;;;12.80;;
17844;SDS011;9047;53.486;10.218;2023-03-20T04:59:32;25.00;;;12.57;;
17844;SDS011;9047;53.486;10.218;2023-03-20T05:01:59;29.70;;;14.25;;
17844;SDS011;9047;53.486;10.218;2023-03-20T05:04:28;27.35;;;13.65;;
17844;SDS011;9047;53.486;10.218;2023-03-20T05:06:55;28.02;;;13.50;;
17844;SDS011;9047;53.486;10.218;2023-03-20T05:09:30;25.73;;;12.48;;
17844;SDS011;9047;53.486;10.218;2023-03-20T05:11:57;24.23;;;12.40;;
17844;SDS011;9047;53.486;10.218;2023-03-20T05:14:26;25.60;;;12.55;;
17844;SDS011;9047;53.486;10.218;2023-03-20T05:16:57;19.52;;;10.98;;
17844;SDS011;9047;53.486;10.218;2023-03-20T05:19:26;23.00;;;11.18;;
17844;SDS011;9047;53.486;10.218;2023-03-20T05:21:53;20.25;;;10.45;;
17844;SDS011;9047;53.486;10.218;2023-03-20T05:24:21;23.20;;;10.98;;
17844;SDS011;9047;53.486;10.218;2023-03-20T05:26:49;21.85;;;11.40;;
17844;SDS011;9047;53.486;10.218;2023-03-20T05:29:16;20.00;;;10.23;;
17844;SDS011;9047;53.486;10.218;2023-03-20T05:31:43;17.75;;;9.32;;
17844;SDS011;9047;53.486;10.218;2023-03-20T05:34:15;20.30;;;9.80;;
17844;SDS011;9047;53.486;10.218;2023-03-20T05:36:45;15.90;;;8.75;;
17844;SDS011;9047;53.486;10.218;2023-03-20T05:39:15;15.82;;;8.93;;
17844;SDS011;9047;53.486;10.218;2023-03-20T05:41:42;16.83;;;8.90;;
17844;SDS011;9047;53.486;10.218;2023-03-20T05:44:09;17.00;;;9.43;;
17844;SDS011;9047;53.486;10.218;2023-03-20T05:46:37;17.40;;;9.52;;
17844;SDS011;9047;53.486;10.218;2023-03-20T05:49:05;19.27;;;9.88;;
17844;SDS011;9047;53.486;10.218;2023-03-20T05:51:36;19.95;;;10.18;;
17844;SDS011;9047;53.486;10.218;2023-03-20T05:54:06;20.75;;;10.30;;
17844;SDS011;9047;53.486;10.218;2023-03-20T05:56:33;19.00;;;9.93;;
17844;SDS011;9047;53.486;10.218;2023-03-20T05:59:01;18.90;;;10.15;;
17844;SDS011;9047;53.486;10.218;2023-03-20T06:01:28;21.40;;;10.50;;
17844;SDS011;9047;53.486;10.218;2023-03-20T06:03:55;18.10;;;10.52;;
17844;SDS011;9047;53.486;10.218;2023-03-20T06:06:22;18.88;;;10.10;;
17844;SDS011;9047;53.486;10.218;2023-03-20T06:08:51;18.02;;;9.55;;
17844;SDS011;9047;53.486;10.218;2023-03-20T06:11:19;17.38;;;9.85;;
17844;SDS011;9047;53.486;10.218;2023-03-20T06:13:46;17.10;;;8.82;;
17844;SDS011;9047;53.486;10.218;2023-03-20T06:16:23;15.52;;;8.50;;
17844;SDS011;9047;53.486;10.218;2023-03-20T06:18:53;14.25;;;8.02;;
17844;SDS011;9047;53.486;10.218;2023-03-20T06:21:20;14.82;;;8.05;;
17844;SDS011;9047;53.486;10.218;2023-03-20T06:23:47;15.25;;;8.35;;
17844;SDS011;9047;53.486;10.218;2023-03-20T06:26:20;16.67;;;8.73;;
17844;SDS011;9047;53.486;10.218;2023-03-20T06:28:49;16.05;;;8.75;;
17844;SDS011;9047;53.486;10.218;2023-03-20T06:31:16;16.90;;;8.82;;
17844;SDS011;9047;53.486;10.218;2023-03-20T06:33:43;16.10;;;9.02;;
17844;SDS011;9047;53.486;10.218;2023-03-20T06:36:10;17.05;;;9.25;;
17844;SDS011;9047;53.486;10.218;2023-03-20T06:38:37;14.95;;;8.90;;
17844;SDS011;9047;53.486;10.218;2023-03-20T06:41:06;17.02;;;9.02;;
17844;SDS011;9047;53.486;10.218;2023-03-20T06:43:37;17.42;;;8.63;;
17844;SDS011;9047;53.486;10.218;2023-03-20T06:46:04;15.13;;;8.60;;
17844;SDS011;9047;53.486;10.218;2023-03-20T06:48:33;14.35;;;8.05;;
17844;SDS011;9047;53.486;10.218;2023-03-20T06:51:01;18.27;;;9.00;;
17844;SDS011;9047;53.486;10.218;2023-03-20T06:53:29;16.75;;;9.25;;
17844;SDS011;9047;53.486;10.218;2023-03-20T06:55:56;14.95;;;8.50;;
17844;SDS011;9047;53.486;10.218;2023-03-20T06:58:30;15.73;;;8.80;;
17844;SDS011;9047;53.486;10.218;2023-03-20T07:01:08;14.73;;;7.82;;
17844;SDS011;9047;53.486;10.218;2023-03-20T07:03:37;13.85;;;7.85;;
17844;SDS011;9047;53.486;10.218;2023-03-20T07:06:07;11.65;;;7.10;;
17844;SDS011;9047;53.486;10.218;2023-03-20T07:08:35;14.90;;;7.35;;
17844;SDS011;9047;53.486;10.218;2023-03-20T07:11:04;13.63;;;6.88;;
17844;SDS011;9047;53.486;10.218;2023-03-20T07:13:34;13.38;;;7.47;;
17844;SDS011;9047;53.486;10.218;2023-03-20T07:16:02;12.20;;;6.30;;
17844;SDS011;9047;53.486;10.218;2023-03-20T07:18:33;12.98;;;6.10;;
17844;SDS011;9047;53.486;10.218;2023-03-20T07:21:06;9.95;;;5.78;;
17844;SDS011;9047;53.486;10.218;2023-03-20T07:23:38;11.90;;;5.65;;
17844;SDS011;9047;53.486;10.218;2023-03-20T07:26:07;9.20;;;5.40;;
17844;SDS011;9047;53.486;10.218;2023-03-20T07:28:34;10.32;;;5.88;;
17844;SDS011;9047;53.486;10.218;2023-03-20T07:31:04;10.48;;;6.25;;
17844;SDS011;9047;53.486;10.218;2023-03-20T07:33:34;9.45;;;6.30;;
17844;SDS011;9047;53.486;10.218;2023-03-20T07:36:02;12.10;;;6.15;;
17844;SDS011;9047;53.486;10.218;2023-03-20T07:38:32;9.65;;;5.88;;
17844;SDS011;9047;53.486;10.218;2023-03-20T07:40:59;12.18;;;6.00;;
17844;SDS011;9047;53.486;10.218;2023-03-20T07:43:27;9.45;;;5.80;;
17844;SDS011;9047;53.486;10.218;2023-03-20T07:45:57;10.38;;;5.40;;
17844;SDS011;9047;53.486;10.218;2023-03-20T07:48:24;10.55;;;5.95;;
17844;SDS011;9047;53.486;10.218;2023-03-20T07:50:53;10.27;;;5.60;;
17844;SDS011;9047;53.486;10.218;2023-03-20T07:53:19;9.13;;;5.07;;
17844;SDS011;9047;53.486;10.218;2023-03-20T07:55:46;7.72;;;4.97;;
17844;SDS011;9047;53.486;10.218;2023-03-20T07:58:13;9.50;;;5.28;;
17844;SDS011;9047;53.486;10.218;2023-03-20T08:00:40;11.50;;;5.47;;
17844;SDS011;9047;53.486;10.218;2023-03-20T08:03:08;8.35;;;4.60;;
17844;SDS011;9047;53.486;10.218;2023-03-20T08:05:35;9.32;;;5.15;;
17844;SDS011;9047;53.486;10.218;2023-03-20T08:08:04;7.65;;;4.80;;
17844;SDS011;9047;53.486;10.218;2023-03-20T08:10:31;8.88;;;5.38;;
17844;SDS011;9047;53.486;10.218;2023-03-20T08:13:00;9.45;;;5.50;;
17844;SDS011;9047;53.486;10.218;2023-03-20T08:15:28;8.45;;;4.95;;
17844;SDS011;9047;53.486;10.218;2023-03-20T08:17:54;9.45;;;5.25;;
17844;SDS011;9047;53.486;10.218;2023-03-20T08:20:22;7.38;;;4.55;;
17844;SDS011;9047;53.486;10.218;2023-03-20T08:22:50;8.70;;;5.22;;
17844;SDS011;9047;53.486;10.218;2023-03-20T08:25:18;7.63;;;4.72;;
17844;SDS011;9047;53.486;10.218;2023-03-20T08:27:48;7.95;;;4.80;;
17844;SDS011;9047;53.486;10.218;2023-03-20T08:30:16;7.00;;;4.72;;
17844;SDS011;9047;53.486;10.218;2023-03-20T08:32:43;8.75;;;4.40;;
17844;SDS011;9047;53.486;10.218;2023-03-20T08:35:11;8.88;;;4.90;;
17844;SDS011;9047;53.486;10.218;2023-03-20T08:37:38;9.65;;;4.50;;
17844;SDS011;9047;53.486;10.218;2023-03-20T08:40:08;7.15;;;4.55;;
17844;SDS011;9047;53.486;10.218;2023-03-20T08:42:38;8.77;;;4.57;;
17844;SDS011;9047;53.486;10.218;2023-03-20T08:45:05;8.43;;;4.70;;
17844;SDS011;9047;53.486;10.218;2023-03-20T08:47:34;8.57;;;4.85;;
17844;SDS011;9047;53.486;10.218;2023-03-20T08:50:01;9.43;;;5.15;;
17844;SDS011;9047;53.486;10.218;2023-03-20T08:52:28;9.07;;;5.20;;
17844;SDS011;9047;53.486;10.218;2023-03-20T08:54:55;7.82;;;4.88;;
17844;SDS011;9047;53.486;10.218;2023-03-20T08:57:24;8.32;;;4.95;;
17844;SDS011;9047;53.486;10.218;2023-03-20T08:59:55;6.50;;;4.63;;
17844;SDS011;9047;53.486;10.218;2023-03-20T09:02:22;10.68;;;5.13;;
17844;SDS011;9047;53.486;10.218;2023-03-20T09:04:50;11.07;;;5.85;;
17844;SDS011;9047;53.486;10.218;2023-03-20T09:07:18;9.57;;;5.50;;
17844;SDS011;9047;53.486;10.218;2023-03-20T09:09:46;8.80;;;5.28;;
17844;SDS011;9047;53.486;10.218;2023-03-20T09:12:18;8.35;;;4.78;;
17844;SDS011;9047;53.486;10.218;2023-03-20T09:14:46;7.97;;;4.68;;
17844;SDS011;9047;53.486;10.218;2023-03-20T09:17:16;11.45;;;6.00;;
17844;SDS011;9047;53.486;10.218;2023-03-20T09:19:44;9.20;;;5.10;;
17844;SDS011;9047;53.486;10.218;2023-03-20T09:22:11;6.95;;;4.80;;
17844;SDS011;9047;53.486;10.218;2023-03-20T09:24:39;9.98;;;5.32;;
17844;SDS011;9047;53.486;10.218;2023-03-20T09:27:07;8.90;;;5.00;;
17844;SDS011;9047;53.486;10.218;2023-03-20T09:29:34;7.50;;;4.72;;
17844;SDS011;9047;53.486;10.218;2023-03-20T09:32:01;8.13;;;4.90;;
17844;SDS011;9047;53.486;10.218;2023-03-20T09:34:30;8.45;;;5.25;;
17844;SDS011;9047;53.486;10.218;2023-03-20T09:36:57;10.32;;;5.32;;
17844;SDS011;9047;53.486;10.218;2023-03-20T09:39:27;10.30;;;5.55;;
17844;SDS011;9047;53.486;10.218;2023-03-20T09:41:54;7.93;;;5.25;;
17844;SDS011;9047;53.486;10.218;2023-03-20T09:44:31;8.82;;;5.60;;
17844;SDS011;9047;53.486;10.218;2023-03-20T09:47:13;9.68;;;6.03;;
17844;SDS011;9047;53.486;10.218;2023-03-20T09:49:49;8.02;;;5.38;;
17844;SDS011;9047;53.486;10.218;2023-03-20T09:52:35;10.65;;;5.78;;
17844;SDS011;9047;53.486;10.218;2023-03-20T09:55:10;11.60;;;5.78;;
17844;SDS011;9047;53.486;10.218;2023-03-20T09:57:41;11.75;;;6.03;;
17844;SDS011;9047;53.486;10.218;2023-03-20T10:00:15;10.50;;;5.47;;
17844;SDS011;9047;53.486;10.218;2023-03-20T10:03:14;10.68;;;5.82;;
17844;SDS011;9047;53.486;10.218;2023-03-20T10:05:57;10.52;;;5.57;;
17844;SDS011;9047;53.486;10.218;2023-03-20T10:08:28;11.32;;;6.43;;
17844;SDS011;9047;53.486;10.218;2023-03-20T10:11:04;12.80;;;6.50;;
17844;SDS011;9047;53.486;10.218;2023-03-20T10:13:45;15.10;;;9.00;;
17844;SDS011;9047;53.486;10.218;2023-03-20T10:16:36;11.95;;;7.15;;
17844;SDS011;9047;53.486;10.218;2023-03-20T10:19:20;12.50;;;7.03;;
17844;SDS011;9047;53.486;10.218;2023-03-20T10:21:54;11.90;;;6.40;;
17844;SDS011;9047;53.486;10.218;2023-03-20T10:24:28;12.02;;;6.55;;
17844;SDS011;9047;53.486;10.218;2023-03-20T10:26:59;10.90;;;6.32;;
17844;SDS011;9047;53.486;10.218;2023-03-20T10:29:38;11.85;;;6.55;;
17844;SDS011;9047;53.486;10.218;2023-03-20T10:32:20;12.57;;;6.68;;
17844;SDS011;9047;53.486;10.218;2023-03-20T10:35:12;14.23;;;6.68;;
17844;SDS011;9047;53.486;10.218;2023-03-20T10:37:53;11.23;;;6.38;;
17844;SDS011;9047;53.486;10.218;2023-03-20T10:40:37;11.90;;;6.60;;
17844;SDS011;9047;53.486;10.218;2023-03-20T10:43:10;10.25;;;6.10;;
17844;SDS011;9047;53.486;10.218;2023-03-20T10:45:46;12.43;;;6.05;;
17844;SDS011;9047;53.486;10.218;2023-03-20T10:48:21;11.88;;;6.25;;
17844;SDS011;9047;53.486;10.218;2023-03-20T10:50:52;13.75;;;5.93;;
17844;SDS011;9047;53.486;10.218;2023-03-20T10:53:27;11.60;;;5.47;;
17844;SDS011;9047;53.486;10.218;2023-03-20T10:56:01;10.93;;;5.78;;
17844;SDS011;9047;53.486;10.218;2023-03-20T10:58:32;14.15;;;5.43;;
17844;SDS011;9047;53.486;10.218;2023-03-20T11:01:07;11.43;;;5.88;;
17844;SDS011;9047;53.486;10.218;2023-03-20T11:04:03;10.70;;;5.80;;
17844;SDS011;9047;53.486;10.218;2023-03-20T11:06:47;11.65;;;5.82;;
17844;SDS011;9047;53.486;10.218;2023-03-20T11:12:00;11.85;;;5.22;;
17844;SDS011;9047;53.486;10.218;2023-03-20T11:17:16;9.48;;;5.38;;
17844;SDS011;9047;53.486;10.218;2023-03-20T11:19:46;9.23;;;5.22;;
17844;SDS011;9047;53.486;10.218;2023-03-20T11:22:22;9.77;;;5.40;;
17844;SDS011;9047;53.486;10.218;2023-03-20T11:24:51;12.65;;;5.20;;
17844;SDS011;9047;53.486;10.218;2023-03-20T11:27:25;9.32;;;5.05;;
17844;SDS011;9047;53.486;10.218;2023-03-20T11:29:54;10.65;;;4.70;;
17844;SDS011;9047;53.486;10.218;2023-03-20T11:32:26;13.27;;;4.97;;
17844;SDS011;9047;53.486;10.218;2023-03-20T11:34:56;11.32;;;5.40;;
17844;SDS011;9047;53.486;10.218;2023-03-20T11:37:34;7.68;;;4.50;;
17844;SDS011;9047;53.486;10.218;2023-03-20T11:40:12;12.75;;;4.88;;
17844;SDS011;9047;53.486;10.218;2023-03-20T11:42:52;8.82;;;4.53;;
17844;SDS011;9047;53.486;10.218;2023-03-20T11:45:20;9.45;;;4.53;;
17844;SDS011;9047;53.486;10.218;2023-03-20T11:47:50;7.97;;;4.78;;
17844;SDS011;9047;53.486;10.218;2023-03-20T11:50:26;9.27;;;4.70;;
17844;SDS011;9047;53.486;10.218;2023-03-20T11:52:58;11.57;;;4.82;;
17844;SDS011;9047;53.486;10.218;2023-03-20T11:55:27;9.55;;;4.50;;
17844;SDS011;9047;53.486;10.218;2023-03-20T11:57:59;8.40;;;4.63;;
17844;SDS011;9047;53.486;10.218;2023-03-20T12:00:29;9.88;;;4.18;;
17844;SDS011;9047;53.486;10.218;2023-03-20T12:03:02;9.63;;;4.20;;
17844;SDS011;9047;53.486;10.218;2023-03-20T12:05:31;10.65;;;4.55;;
17844;SDS011;9047;53.486;10.218;2023-03-20T12:08:03;9.18;;;4.35;;
17844;SDS011;9047;53.486;10.218;2023-03-20T12:10:40;9.52;;;4.63;;
17844;SDS011;9047;53.486;10.218;2023-03-20T12:13:12;8.38;;;4.40;;
17844;SDS011;9047;53.486;10.218;2023-03-20T12:15:43;8.50;;;4.40;;
17844;SDS011;9047;53.486;10.218;2023-03-20T12:18:14;9.30;;;4.57;;
17844;SDS011;9047;53.486;10.218;2023-03-20T12:20:51;10.60;;;4.47;;
17844;SDS011;9047;53.486;10.218;2023-03-20T12:23:29;10.05;;;4.85;;
17844;SDS011;9047;53.486;10.218;2023-03-20T12:26:03;10.05;;;4.80;;
17844;SDS011;9047;53.486;10.218;2023-03-20T12:28:37;14.68;;;5.35;;
17844;SDS011;9047;53.486;10.218;2023-03-20T12:31:15;10.32;;;4.93;;
17844;SDS011;9047;53.486;10.218;2023-03-20T12:33:48;8.90;;;4.50;;
17844;SDS011;9047;53.486;10.218;2023-03-20T12:36:22;9.30;;;5.00;;
17844;SDS011;9047;53.486;10.218;2023-03-20T12:38:55;8.63;;;4.32;;
17844;SDS011;9047;53.486;10.218;2023-03-20T12:41:23;12.63;;;5.10;;
17844;SDS011;9047;53.486;10.218;2023-03-20T12:47:02;9.82;;;4.78;;
17844;SDS011;9047;53.486;10.218;2023-03-20T12:49:41;12.63;;;5.18;;
17844;SDS011;9047;53.486;10.218;2023-03-20T12:52:18;8.70;;;4.47;;
17844;SDS011;9047;53.486;10.218;2023-03-20T12:55:05;9.77;;;5.15;;
17844;SDS011;9047;53.486;10.218;2023-03-20T12:57:43;9.75;;;4.95;;
17844;SDS011;9047;53.486;10.218;2023-03-20T13:00:22;10.45;;;5.30;;
17844;SDS011;9047;53.486;10.218;2023-03-20T13:03:02;9.93;;;5.40;;
17844;SDS011;9047;53.486;10.218;2023-03-20T13:05:42;11.05;;;5.45;;
17844;SDS011;9047;53.486;10.218;2023-03-20T13:08:26;9.60;;;5.10;;
17844;SDS011;9047;53.486;10.218;2023-03-20T13:11:11;10.25;;;5.13;;
17844;SDS011;9047;53.486;10.218;2023-03-20T13:13:46;10.35;;;4.70;;
17844;SDS011;9047;53.486;10.218;2023-03-20T13:16:19;9.68;;;5.05;;
17844;SDS011;9047;53.486;10.218;2023-03-20T13:18:56;9.63;;;5.28;;
17844;SDS011;9047;53.486;10.218;2023-03-20T13:21:30;7.35;;;4.78;;
17844;SDS011;9047;53.486;10.218;2023-03-20T13:24:03;9.77;;;5.00;;
17844;SDS011;9047;53.486;10.218;2023-03-20T13:26:40;11.52;;;4.95;;
17844;SDS011;9047;53.486;10.218;2023-03-20T13:29:14;11.15;;;4.90;;
17844;SDS011;9047;53.486;10.218;2023-03-20T13:31:52;8.50;;;4.90;;
17844;SDS011;9047;53.486;10.218;2023-03-20T13:34:29;7.60;;;4.32;;
17844;SDS011;9047;53.486;10.218;2023-03-20T13:37:07;10.20;;;4.80;;
17844;SDS011;9047;53.486;10.218;2023-03-20T13:39:39;11.02;;;4.75;;
17844;SDS011;9047;53.486;10.218;2023-03-20T13:42:10;8.73;;;5.10;;
17844;SDS011;9047;53.486;10.218;2023-03-20T13:44:40;9.38;;;4.97;;
17844;SDS011;9047;53.486;10.218;2023-03-20T13:47:09;8.80;;;5.20;;
17844;SDS011;9047;53.486;10.218;2023-03-20T13:49:42;8.18;;;4.68;;
17844;SDS011;9047;53.486;10.218;2023-03-20T13:52:18;8.95;;;4.80;;
17844;SDS011;9047;53.486;10.218;2023-03-20T13:54:57;10.02;;;4.97;;
17844;SDS011;9047;53.486;10.218;2023-03-20T13:57:47;10.43;;;5.50;;
17844;SDS011;9047;53.486;10.218;2023-03-20T14:00:29;8.45;;;5.13;;
17844;SDS011;9047;53.486;10.218;2023-03-20T14:03:09;9.35;;;5.40;;
17844;SDS011;9047;53.486;10.218;2023-03-20T14:05:45;10.43;;;5.32;;
17844;SDS011;9047;53.486;10.218;2023-03-20T14:08:20;8.70;;;4.93;;
17844;SDS011;9047;53.486;10.218;2023-03-20T14:11:11;9.85;;;5.18;;
17844;SDS011;9047;53.486;10.218;2023-03-20T14:13:56;10.93;;;5.07;;
17844;SDS011;9047;53.486;10.218;2023-03-20T14:16:26;9.60;;;5.40;;
17844;SDS011;9047;53.486;10.218;2023-03-20T14:19:03;8.13;;;4.95;;
17844;SDS011;9047;53.486;10.218;2023-03-20T14:21:33;13.63;;;5.00;;
17844;SDS011;9047;53.486;10.218;2023-03-20T14:24:01;9.30;;;4.93;;
17844;SDS011;9047;53.486;10.218;2023-03-20T14:26:30;8.82;;;5.05;;
17844;SDS011;9047;53.486;10.218;2023-03-20T14:29:20;10.75;;;4.60;;
17844;SDS011;9047;53.486;10.218;2023-03-20T14:32:01;9.00;;;4.55;;
17844;SDS011;9047;53.486;10.218;2023-03-20T14:34:43;9.25;;;4.40;;
17844;SDS011;9047;53.486;10.218;2023-03-20T14:37:26;8.85;;;4.55;;
17844;SDS011;9047;53.486;10.218;2023-03-20T14:39:59;12.35;;;4.78;;
17844;SDS011;9047;53.486;10.218;2023-03-20T14:42:36;7.88;;;4.80;;
17844;SDS011;9047;53.486;10.218;2023-03-20T14:45:29;10.48;;;4.95;;
17844;SDS011;9047;53.486;10.218;2023-03-20T14:48:02;9.35;;;4.80;;
17844;SDS011;9047;53.486;10.218;2023-03-20T14:50:37;7.95;;;4.65;;
17844;SDS011;9047;53.486;10.218;2023-03-20T14:53:16;7.70;;;4.80;;
17844;SDS011;9047;53.486;10.218;2023-03-20T14:56:02;11.75;;;4.90;;
17844;SDS011;9047;53.486;10.218;2023-03-20T14:58:34;9.57;;;5.03;;
17844;SDS011;9047;53.486;10.218;2023-03-20T15:01:24;11.13;;;5.00;;
17844;SDS011;9047;53.486;10.218;2023-03-20T15:07:02;9.10;;;4.80;;
17844;SDS011;9047;53.486;10.218;2023-03-20T15:09:34;11.18;;;5.10;;
17844;SDS011;9047;53.486;10.218;2023-03-20T15:12:05;9.50;;;4.50;;
17844;SDS011;9047;53.486;10.218;2023-03-20T15:14:34;11.48;;;5.15;;
17844;SDS011;9047;53.486;10.218;2023-03-20T15:17:14;9.63;;;4.30;;
17844;SDS011;9047;53.486;10.218;2023-03-20T15:19:44;7.63;;;4.45;;
17844;SDS011;9047;53.486;10.218;2023-03-20T15:22:13;10.00;;;5.05;;
17844;SDS011;9047;53.486;10.218;2023-03-20T15:24:44;8.88;;;4.32;;